Time;durP1;ratioP1;P1;durP2;ratioP2;P2;SDS_P1;SDS_P2;PMS_P1;PMS_P2;Temp;Humidity;BMP_temperature;BMP_pressure;BME280_temperature;BME280_humidity;BME280_pressure;Samples;Min_cycle;Max_cycle;Signal;HPM_P1;HPM_P2
2022/04/02 00:01:18;;;;;;;12.43;7.63;;;4.80;99.90;;;;;;5051849;28;20285;-55
2022/04/02 00:03:43;;;;;;;12.60;8.13;;;5.10;99.90;;;;;;5052439;28;20517;-55
2022/04/02 00:06:09;;;;;;;12.57;8.40;;;5.00;99.90;;;;;;5052607;28;20167;-52
2022/04/02 00:08:35;;;;;;;10.07;7.73;;;5.00;99.90;;;;;;5052975;28;20228;-57
2022/04/02 00:11:00;;;;;;;11.40;7.73;;;5.10;99.90;;;;;;5049096;28;20187;-54
2022/04/02 00:13:26;;;;;;;11.70;8.73;;;5.00;99.90;;;;;;5051603;28;20267;-55
2022/04/02 00:15:52;;;;;;;11.13;8.50;;;5.00;99.90;;;;;;5052683;28;20533;-56
2022/04/02 00:18:18;;;;;;;10.33;8.33;;;5.00;99.90;;;;;;5052641;28;20570;-57
2022/04/02 00:20:43;;;;;;;10.23;8.00;;;5.00;99.90;;;;;;5052568;28;20690;-55
2022/04/02 00:25:53;;;;;;;10.07;8.10;;;5.00;99.90;;;;;;5052524;28;20210;-54
2022/04/02 00:28:18;;;;;;;11.87;8.17;;;5.00;99.90;;;;;;5051821;28;20500;-56
2022/04/02 00:30:45;;;;;;;11.37;8.27;;;5.10;99.90;;;;;;5052165;28;20186;-55
2022/04/02 00:33:11;;;;;;;11.60;8.60;;;5.00;99.90;;;;;;5051825;28;20181;-56
2022/04/02 00:35:37;;;;;;;10.93;8.53;;;5.20;99.90;;;;;;5051841;28;20234;-53
2022/04/02 00:38:03;;;;;;;13.87;8.80;;;5.00;99.90;;;;;;5052305;28;20199;-56
2022/04/02 00:40:29;;;;;;;11.40;8.37;;;5.10;99.90;;;;;;5051827;28;20198;-52
2022/04/02 00:42:55;;;;;;;10.20;8.27;;;5.10;99.90;;;;;;5050889;28;20624;-56
2022/04/02 00:45:20;;;;;;;10.30;8.37;;;5.00;99.90;;;;;;5051638;28;20187;-56
2022/04/02 00:47:46;;;;;;;11.10;9.23;;;5.50;99.90;;;;;;5052471;28;20186;-58
2022/04/02 00:50:12;;;;;;;16.03;8.67;;;4.90;99.90;;;;;;5051793;28;20232;-57
2022/04/02 00:52:39;;;;;;;12.03;8.53;;;4.90;99.90;;;;;;5051642;28;20179;-55
2022/04/02 00:55:05;;;;;;;16.83;8.57;;;5.00;99.90;;;;;;5051813;28;20206;-52
2022/04/02 00:57:31;;;;;;;13.83;9.13;;;4.90;99.90;;;;;;5051678;28;20217;-53
2022/04/02 00:59:56;;;;;;;11.60;8.70;;;5.00;99.90;;;;;;5052011;28;20234;-57
2022/04/02 01:02:22;;;;;;;13.57;9.20;;;5.30;99.90;;;;;;5050927;28;20202;-56
2022/04/02 01:04:48;;;;;;;13.03;8.50;;;4.90;99.90;;;;;;5051758;28;20689;-54
2022/04/02 01:07:16;;;;;;;10.10;8.53;;;4.70;99.90;;;;;;5051668;28;20167;-52
2022/04/02 01:09:41;;;;;;;13.93;8.77;;;4.70;99.90;;;;;;5051731;28;20178;-53
2022/04/02 01:12:07;;;;;;;10.37;9.23;;;5.10;99.90;;;;;;5051477;28;20179;-55
2022/04/02 01:14:33;;;;;;;13.27;9.30;;;4.90;99.90;;;;;;5050815;28;20278;-53
2022/04/02 01:17:01;;;;;;;14.10;9.07;;;4.80;99.90;;;;;;5051507;28;20168;-53
2022/04/02 01:19:27;;;;;;;16.17;9.33;;;4.70;99.90;;;;;;5051529;28;20177;-51
2022/04/02 01:21:52;;;;;;;15.07;9.53;;;4.70;99.90;;;;;;5050901;28;20203;-54
2022/04/02 01:24:18;;;;;;;16.97;9.43;;;4.70;99.90;;;;;;5050603;28;20202;-54
2022/04/02 01:26:43;;;;;;;14.97;9.57;;;4.80;99.90;;;;;;5050536;28;20190;-56
2022/04/02 01:29:09;;;;;;;13.80;8.70;;;4.60;99.90;;;;;;5051466;28;20174;-53
2022/04/02 01:31:34;;;;;;;16.80;8.90;;;4.60;99.90;;;;;;5051390;28;20175;-56
2022/04/02 01:34:00;;;;;;;16.77;8.80;;;4.60;99.90;;;;;;5051239;28;20260;-55
2022/04/02 01:36:26;;;;;;;13.37;8.90;;;4.50;99.90;;;;;;5051036;28;20171;-56
2022/04/02 01:38:52;;;;;;;16.43;8.63;;;4.60;99.90;;;;;;5051556;28;20182;-52
2022/04/02 01:41:19;;;;;;;15.97;9.53;;;4.70;99.90;;;;;;5050929;28;20280;-52
2022/04/02 01:43:44;;;;;;;21.13;8.77;;;4.90;99.90;;;;;;5050072;28;20179;-54
2022/04/02 01:46:11;;;;;;;20.60;9.23;;;4.70;99.90;;;;;;5051406;28;20228;-56
2022/04/02 01:48:37;;;;;;;13.00;8.93;;;4.70;99.90;;;;;;5049867;28;20201;-55
2022/04/02 01:51:04;;;;;;;17.60;10.07;;;4.80;99.90;;;;;;5050878;28;20187;-52
2022/04/02 01:53:30;;;;;;;13.27;10.30;;;4.70;99.90;;;;;;5050710;28;20185;-53
2022/04/02 01:55:56;;;;;;;13.10;9.47;;;4.70;99.90;;;;;;5051242;28;20219;-56
2022/04/02 01:58:22;;;;;;;14.70;9.43;;;4.60;99.90;;;;;;5054307;28;20175;-56
2022/04/02 02:00:47;;;;;;;14.00;8.80;;;5.00;99.90;;;;;;5054831;28;20252;-55
2022/04/02 02:03:13;;;;;;;15.47;9.50;;;4.60;99.90;;;;;;5054662;28;20171;-52
2022/04/02 02:05:40;;;;;;;15.87;9.33;;;4.60;99.90;;;;;;5055144;28;20194;-54
2022/04/02 02:08:05;;;;;;;18.93;9.77;;;4.60;99.90;;;;;;5055300;28;20213;-54
2022/04/02 02:10:31;;;;;;;19.83;9.53;;;4.50;99.90;;;;;;5054712;28;20175;-54
2022/04/02 02:12:57;;;;;;;14.57;9.53;;;4.50;99.90;;;;;;5054830;28;20178;-56
2022/04/02 02:15:23;;;;;;;13.87;9.23;;;4.30;99.90;;;;;;5054699;28;20684;-53
2022/04/02 02:17:50;;;;;;;15.53;9.83;;;4.40;99.90;;;;;;5055237;28;20543;-53
2022/04/02 02:20:16;;;;;;;16.53;10.47;;;4.50;99.90;;;;;;5054788;28;20664;-55
2022/04/02 02:22:43;;;;;;;14.20;9.33;;;4.20;99.90;;;;;;5054008;28;20547;-54
2022/04/02 02:25:12;;;;;;;14.73;9.60;;;4.50;99.90;;;;;;5054788;28;20702;-53
2022/04/02 02:27:42;;;;;;;13.87;9.53;;;4.50;99.90;;;;;;5049460;28;20795;-54
2022/04/02 02:30:09;;;;;;;16.53;10.30;;;4.50;99.90;;;;;;5052921;28;20182;-54
2022/04/02 02:32:36;;;;;;;13.03;10.20;;;4.50;99.90;;;;;;5054019;28;20175;-53
2022/04/02 02:38:14;;;;;;;14.33;9.80;;;4.30;99.90;;;;;;5054575;28;20178;-56
2022/04/02 02:40:40;;;;;;;12.37;9.73;;;4.50;99.90;;;;;;5054466;28;20576;-52
2022/04/02 02:43:07;;;;;;;17.30;9.80;;;4.40;99.90;;;;;;5053724;28;20175;-54
2022/04/02 02:45:34;;;;;;;15.70;9.80;;;4.50;99.90;;;;;;5053243;28;20202;-52
2022/04/02 02:48:01;;;;;;;18.10;10.90;;;4.50;99.90;;;;;;5054471;28;20167;-54
2022/04/02 02:50:27;;;;;;;16.60;10.10;;;4.50;99.90;;;;;;5054254;28;20179;-53
2022/04/02 02:52:53;;;;;;;11.80;9.60;;;4.50;99.90;;;;;;5054137;28;20167;-53
2022/04/02 02:55:19;;;;;;;13.77;9.83;;;4.50;99.90;;;;;;5054001;28;20222;-56
2022/04/02 02:57:45;;;;;;;16.60;9.77;;;4.40;99.90;;;;;;5054426;28;20183;-54
2022/04/02 03:00:12;;;;;;;18.07;10.67;;;4.40;99.90;;;;;;5053797;28;20661;-54
2022/04/02 03:02:38;;;;;;;14.13;9.67;;;4.40;99.90;;;;;;5053912;28;20182;-55
2022/04/02 03:05:10;;;;;;;20.53;10.00;;;4.40;99.90;;;;;;5054016;28;20202;-55
2022/04/02 03:07:48;;;;;;;14.67;11.00;;;4.40;99.90;;;;;;5054125;28;20172;-54
2022/04/02 03:10:16;;;;;;;17.03;10.27;;;4.50;99.90;;;;;;5053617;28;20175;-57
2022/04/02 03:12:41;;;;;;;14.70;9.53;;;4.40;99.90;;;;;;5053354;28;20220;-52
2022/04/02 03:15:07;;;;;;;15.03;9.60;;;4.30;99.90;;;;;;5053858;28;20187;-55
2022/04/02 03:17:33;;;;;;;15.70;10.20;;;4.40;99.90;;;;;;5053778;28;20183;-57
2022/04/02 03:20:00;;;;;;;14.20;10.67;;;4.30;99.90;;;;;;5053875;28;20560;-54
2022/04/02 03:22:27;;;;;;;14.17;9.90;;;4.40;99.90;;;;;;5052939;28;20171;-55
2022/04/02 03:24:53;;;;;;;15.83;10.20;;;4.60;99.90;;;;;;5053435;28;20199;-54
2022/04/02 03:27:19;;;;;;;12.33;9.80;;;4.50;99.90;;;;;;5053669;28;20171;-55
2022/04/02 03:29:44;;;;;;;15.70;10.30;;;4.40;99.90;;;;;;5053628;28;20254;-56
2022/04/02 03:32:10;;;;;;;16.97;10.43;;;4.40;99.90;;;;;;5052893;28;20621;-55
2022/04/02 03:34:36;;;;;;;16.33;9.80;;;4.40;99.90;;;;;;5053242;28;20206;-53
2022/04/02 03:37:01;;;;;;;13.03;9.63;;;4.40;99.90;;;;;;5053400;28;20175;-53
2022/04/02 03:39:27;;;;;;;17.40;10.13;;;4.40;99.90;;;;;;5053260;28;20528;-55
2022/04/02 03:41:54;;;;;;;14.23;9.83;;;4.40;99.90;;;;;;5053443;28;20572;-58
2022/04/02 03:44:19;;;;;;;15.97;9.77;;;4.40;99.90;;;;;;5053061;28;20218;-55
2022/04/02 03:49:29;;;;;;;13.33;9.33;;;4.40;99.90;;;;;;5053565;28;20183;-56
2022/04/02 03:51:55;;;;;;;13.37;9.80;;;4.40;99.90;;;;;;5053165;28;20179;-53
2022/04/02 03:54:21;;;;;;;17.57;9.50;;;4.80;99.90;;;;;;5054089;28;20292;-49
2022/04/02 03:56:46;;;;;;;14.63;10.00;;;4.30;99.90;;;;;;5052988;28;20217;-54
2022/04/02 03:59:12;;;;;;;14.93;9.93;;;4.40;99.90;;;;;;5053266;28;20186;-52
2022/04/02 04:01:39;;;;;;;17.27;9.33;;;4.40;99.90;;;;;;5052761;28;20560;-52
2022/04/02 04:04:04;;;;;;;18.03;10.93;;;4.40;99.90;;;;;;5052612;28;20317;-54
2022/04/02 04:06:31;;;;;;;14.50;10.10;;;4.40;99.90;;;;;;5052879;28;20612;-54
2022/04/02 04:08:58;;;;;;;13.73;9.63;;;4.50;99.90;;;;;;5052818;28;20175;-52
2022/04/02 04:11:25;;;;;;;12.27;9.83;;;4.40;99.90;;;;;;5052421;28;20174;-52
2022/04/02 04:13:51;;;;;;;15.67;10.40;;;4.10;99.90;;;;;;5052212;28;20535;-52
2022/04/02 04:16:17;;;;;;;12.97;10.03;;;4.30;99.90;;;;;;5052491;28;20182;-53
2022/04/02 04:18:42;;;;;;;12.00;9.83;;;4.20;99.90;;;;;;5052616;28;20170;-52
2022/04/02 04:21:08;;;;;;;13.97;9.57;;;4.20;99.90;;;;;;5051566;28;20230;-52
2022/04/02 04:23:34;;;;;;;15.97;9.90;;;4.30;99.90;;;;;;5051545;28;20164;-52
2022/04/02 04:26:00;;;;;;;13.07;10.20;;;4.20;99.90;;;;;;5052451;28;20183;-51
2022/04/02 04:28:26;;;;;;;13.10;10.10;;;4.30;99.90;;;;;;5052574;28;20187;-51
2022/04/02 04:30:51;;;;;;;16.97;9.67;;;4.20;99.90;;;;;;5051865;28;20176;-55
2022/04/02 04:33:17;;;;;;;17.63;11.07;;;4.20;99.90;;;;;;5050821;28;20183;-53
2022/04/02 04:35:42;;;;;;;16.23;9.80;;;4.20;99.90;;;;;;5051574;28;20199;-53
2022/04/02 04:38:08;;;;;;;15.10;10.40;;;4.10;99.90;;;;;;5051831;28;20183;-56
2022/04/02 04:40:34;;;;;;;17.13;10.20;;;4.20;99.90;;;;;;5051617;28;20221;-54
2022/04/02 04:42:59;;;;;;;11.83;9.10;;;4.20;99.90;;;;;;5051980;28;20168;-54
2022/04/02 04:45:25;;;;;;;18.20;9.40;;;4.20;99.90;;;;;;5050964;28;20273;-54
2022/04/02 04:47:51;;;;;;;11.77;8.63;;;4.20;99.90;;;;;;5051847;28;20628;-54
2022/04/02 04:50:18;;;;;;;16.30;10.17;;;4.30;99.90;;;;;;5051586;28;20600;-52
2022/04/02 04:52:44;;;;;;;16.80;10.03;;;4.30;99.90;;;;;;5051002;28;20217;-53
2022/04/02 04:55:10;;;;;;;17.53;9.33;;;4.30;99.90;;;;;;5051928;28;20218;-50
2022/04/02 04:57:36;;;;;;;16.27;9.33;;;4.70;99.90;;;;;;5051928;28;20262;-53
2022/04/02 05:00:02;;;;;;;12.87;8.93;;;4.20;99.90;;;;;;5051053;28;20660;-52
2022/04/02 05:02:30;;;;;;;11.33;9.00;;;4.10;99.90;;;;;;5051480;28;20175;-52
2022/04/02 05:04:56;;;;;;;12.80;9.07;;;4.10;99.90;;;;;;5051729;28;20560;-52
2022/04/02 05:07:22;;;;;;;16.53;9.73;;;4.10;99.90;;;;;;5052066;28;20242;-52
2022/04/02 05:09:47;;;;;;;15.93;8.83;;;4.10;99.90;;;;;;5051705;28;20217;-52
2022/04/02 05:12:15;;;;;;;13.73;8.63;;;4.10;99.90;;;;;;5051274;28;20175;-51
2022/04/02 05:14:41;;;;;;;15.07;8.20;;;4.60;99.90;;;;;;5051501;28;20183;-57
2022/04/02 05:17:06;;;;;;;16.37;9.70;;;4.60;99.90;;;;;;5038259;28;20194;-53
2022/04/02 05:19:32;;;;;;;12.40;7.77;;;4.30;99.90;;;;;;5050086;28;20214;-53
2022/04/02 05:21:58;;;;;;;14.13;8.90;;;4.20;99.90;;;;;;5046165;28;20218;-53
2022/04/02 05:24:24;;;;;;;17.07;9.17;;;4.30;99.90;;;;;;5051867;28;20217;-55
2022/04/02 05:26:50;;;;;;;11.80;8.07;;;4.40;99.90;;;;;;5038849;28;20175;-57
2022/04/02 05:29:16;;;;;;;13.57;8.60;;;4.50;99.90;;;;;;5068111;28;20190;-57
2022/04/02 05:31:41;;;;;;;11.50;8.63;;;4.50;99.90;;;;;;5044101;28;20751;-55
2022/04/02 05:34:09;;;;;;;9.97;7.60;;;4.50;99.90;;;;;;5050994;28;20233;-52
2022/04/02 05:36:35;;;;;;;14.37;8.57;;;4.50;99.90;;;;;;5051160;28;20254;-53
2022/04/02 05:39:00;;;;;;;15.37;8.63;;;4.50;99.90;;;;;;5048741;28;20183;-56
2022/04/02 05:41:26;;;;;;;13.13;7.67;;;4.40;99.90;;;;;;5051005;28;20711;-57
2022/04/02 05:43:52;;;;;;;12.47;7.73;;;4.60;99.90;;;;;;5049876;28;20818;-50
2022/04/02 05:46:17;;;;;;;13.63;7.97;;;4.60;99.90;;;;;;5051409;28;20596;-55
2022/04/02 05:48:43;;;;;;;14.03;7.63;;;4.60;99.90;;;;;;5039517;28;20592;-56
2022/04/02 05:51:09;;;;;;;13.63;8.20;;;4.70;99.90;;;;;;5037535;28;20653;-56
2022/04/02 05:53:34;;;;;;;10.47;7.60;;;4.70;99.90;;;;;;5039845;28;20266;-51
2022/04/02 05:56:02;;;;;;;16.67;7.60;;;4.80;99.90;;;;;;5049407;28;20226;-52
2022/04/02 05:58:27;;;;;;;14.40;8.03;;;4.90;99.90;;;;;;5049979;28;20545;-55
2022/04/02 06:00:53;;;;;;;15.70;8.30;;;4.80;99.90;;;;;;5050155;28;20203;-53
2022/04/02 06:03:20;;;;;;;15.60;8.47;;;4.80;99.90;;;;;;5050866;28;20198;-56
2022/04/02 06:05:48;;;;;;;11.60;7.53;;;4.80;99.90;;;;;;5038077;28;20303;-56
2022/04/02 06:08:14;;;;;;;10.43;7.57;;;5.00;99.90;;;;;;5051271;28;20233;-52
2022/04/02 06:10:39;;;;;;;13.07;8.17;;;4.90;99.90;;;;;;5049468;28;20610;-52
2022/04/02 06:13:05;;;;;;;13.17;7.67;;;4.90;99.90;;;;;;5050278;28;20189;-52
2022/04/02 06:15:30;;;;;;;12.77;8.53;;;4.90;99.90;;;;;;5050948;28;20561;-56
2022/04/02 06:17:56;;;;;;;12.47;7.73;;;5.00;99.90;;;;;;5046083;28;20191;-54
2022/04/02 06:20:21;;;;;;;14.97;7.63;;;5.00;99.90;;;;;;5032995;28;20222;-58
2022/04/02 06:22:47;;;;;;;11.17;7.53;;;4.90;99.90;;;;;;5040346;28;20186;-52
2022/04/02 06:25:12;;;;;;;15.73;7.53;;;5.00;99.90;;;;;;5044605;28;20198;-56
2022/04/02 06:27:46;;;;;;;12.37;7.33;;;5.10;99.90;;;;;;5065430;28;20660;-52
2022/04/02 06:30:14;;;;;;;11.90;7.97;;;5.20;99.90;;;;;;5049591;28;20179;-53
2022/04/02 06:32:40;;;;;;;11.87;7.40;;;5.30;99.90;;;;;;5035378;28;20581;-53
2022/04/02 06:35:06;;;;;;;12.17;7.30;;;5.30;99.90;;;;;;5030598;28;20286;-56
2022/04/02 06:37:37;;;;;;;12.37;7.80;;;5.40;99.90;;;;;;5037588;28;20183;-54
2022/04/02 06:40:04;;;;;;;14.43;7.90;;;5.40;99.90;;;;;;5050673;28;20203;-53
2022/04/02 06:42:30;;;;;;;11.77;7.70;;;5.50;99.90;;;;;;5051391;28;20190;-52
2022/04/02 06:44:55;;;;;;;13.83;7.40;;;5.40;99.90;;;;;;5054902;28;20199;-57
2022/04/02 06:47:28;;;;;;;9.93;6.67;;;5.40;99.90;;;;;;5054058;28;20186;-54
2022/04/02 06:49:55;;;;;;;10.73;7.50;;;5.40;99.90;;;;;;5054367;28;20182;-52
2022/04/02 06:52:21;;;;;;;14.37;7.63;;;5.40;99.90;;;;;;5053470;28;20178;-53
2022/04/02 06:54:47;;;;;;;10.53;7.17;;;5.50;99.90;;;;;;5046289;28;20257;-51
2022/04/02 06:57:20;;;;;;;15.50;8.00;;;5.50;99.90;;;;;;5054163;28;20203;-53
2022/04/02 06:59:45;;;;;;;13.53;7.50;;;5.50;99.90;;;;;;5053442;28;20598;-53
2022/04/02 07:02:11;;;;;;;13.77;7.97;;;5.50;99.90;;;;;;5053916;28;20178;-56
2022/04/02 07:04:36;;;;;;;12.87;7.93;;;5.50;99.90;;;;;;5040425;28;20199;-52
2022/04/02 07:07:02;;;;;;;15.63;7.67;;;5.50;99.90;;;;;;5054057;28;20211;-54
2022/04/02 07:09:28;;;;;;;15.17;7.80;;;5.60;99.90;;;;;;5052926;28;20167;-51
2022/04/02 07:11:55;;;;;;;12.13;7.33;;;;;;;;;;5053781;28;20181;-53
2022/04/02 07:14:21;;;;;;;13.40;8.17;;;5.60;99.90;;;;;;5044400;28;20230;-52
2022/04/02 07:16:47;;;;;;;14.83;10.57;;;5.60;99.90;;;;;;5033848;28;20176;-54
2022/04/02 07:19:14;;;;;;;13.87;10.77;;;5.60;99.90;;;;;;5047332;28;20194;-51
2022/04/02 07:21:42;;;;;;;12.77;9.87;;;5.70;99.90;;;;;;5053575;28;20743;-53
2022/04/02 07:24:10;;;;;;;77.13;56.43;;;5.70;99.90;;;;;;5053125;28;20190;-51
2022/04/02 07:26:37;;;;;;;28.43;23.87;;;5.70;99.90;;;;;;5053743;28;20179;-52
2022/04/02 07:29:03;;;;;;;24.97;18.63;;;5.70;99.90;;;;;;5045779;28;20832;-51
2022/04/02 07:31:29;;;;;;;18.47;13.47;;;5.80;99.90;;;;;;5048839;28;20175;-55
2022/04/02 07:33:55;;;;;;;12.07;8.57;;;5.80;99.90;;;;;;5051395;28;20723;-54
2022/04/02 07:36:47;;;;;;;19.30;9.53;;;5.90;99.90;;;;;;5053755;28;20171;-52
2022/04/02 07:39:31;;;;;;;12.03;7.50;;;6.00;99.90;;;;;;5032298;28;20593;-57
2022/04/02 07:42:13;;;;;;;12.27;7.40;;;6.10;99.90;;;;;;5033481;28;20207;-50
2022/04/02 07:45:01;;;;;;;9.50;7.50;;;6.20;99.90;;;;;;5038122;28;20204;-49
2022/04/02 07:47:34;;;;;;;10.70;8.33;;;6.30;99.90;;;;;;5047895;28;20175;-51
2022/04/02 07:50:03;;;;;;;12.73;8.57;;;5.90;99.90;;;;;;5047528;28;20185;-50
2022/04/02 07:52:30;;;;;;;11.67;8.77;;;;;;;;;;5045154;28;20259;-49
2022/04/02 07:54:58;;;;;;;10.10;7.90;;;6.40;99.90;;;;;;5049105;28;20247;-49
2022/04/02 07:57:32;;;;;;;13.37;8.43;;;6.40;99.90;;;;;;5038821;28;20203;-51
2022/04/02 08:00:00;;;;;;;10.57;7.33;;;6.40;99.90;;;;;;5056372;28;20182;-49
2022/04/02 08:02:37;;;;;;;10.53;6.67;;;6.50;99.90;;;;;;5061733;28;20602;-48
2022/04/02 08:05:05;;;;;;;12.53;7.90;;;6.60;99.90;;;;;;5056976;28;20282;-51
2022/04/02 08:07:34;;;;;;;13.37;7.73;;;6.60;99.90;;;;;;5054147;28;20238;-52
2022/04/02 08:10:01;;;;;;;12.33;7.53;;;6.70;99.90;;;;;;5045974;28;20622;-52
2022/04/02 08:12:26;;;;;;;11.20;7.67;;;6.70;99.90;;;;;;5042631;28;20522;-51
2022/04/02 08:14:53;;;;;;;14.17;8.90;;;6.60;99.90;;;;;;5047749;28;20249;-52
2022/04/02 08:17:23;;;;;;;12.33;9.33;;;6.50;99.90;;;;;;5054940;28;20167;-49
2022/04/02 08:19:50;;;;;;;10.23;8.40;;;6.70;99.90;;;;;;5048787;28;20179;-49
2022/04/02 08:22:18;;;;;;;9.57;7.23;;;6.80;99.90;;;;;;5045530;28;20174;-48
2022/04/02 08:24:45;;;;;;;12.03;8.10;;;;;;;;;;5048674;28;20225;-52
2022/04/02 08:27:32;;;;;;;9.20;8.20;;;7.10;99.90;;;;;;5042606;28;20175;-51
2022/04/02 08:30:07;;;;;;;9.47;8.30;;;6.90;99.90;;;;;;5039550;28;20175;-51
2022/04/02 08:32:46;;;;;;;11.00;8.27;;;6.90;99.90;;;;;;5048187;28;20174;-50
2022/04/02 08:35:13;;;;;;;11.27;8.00;;;6.80;99.90;;;;;;5059891;28;20198;-48
2022/04/02 08:37:49;;;;;;;14.13;7.70;;;7.00;99.90;;;;;;5045126;28;20176;-53
2022/04/02 08:40:15;;;;;;;17.93;8.53;;;;;;;;;;5060877;28;20215;-52
2022/04/02 08:42:56;;;;;;;13.90;7.40;;;7.20;99.90;;;;;;5059710;28;20712;-50
2022/04/02 08:45:30;;;;;;;9.10;8.20;;;7.30;99.90;;;;;;5032144;28;20222;-49
2022/04/02 08:48:26;;;;;;;12.40;7.40;;;7.10;99.90;;;;;;5058037;28;20178;-52
2022/04/02 08:51:22;;;;;;;8.47;7.47;;;7.10;99.90;;;;;;5071756;28;20206;-53
2022/04/02 08:53:51;;;;;;;11.33;8.23;;;7.30;99.90;;;;;;5064705;28;20191;-53
2022/04/02 08:56:29;;;;;;;11.27;8.17;;;7.20;99.90;;;;;;5051699;28;20206;-51
2022/04/02 08:59:05;;;;;;;12.80;7.90;;;7.30;99.90;;;;;;5051046;28;20647;-48
2022/04/02 09:01:42;;;;;;;10.87;8.00;;;7.10;99.90;;;;;;5050918;28;20197;-49
2022/04/02 09:04:47;;;;;;;9.13;7.50;;;7.10;99.90;;;;;;5051608;28;20659;-51
2022/04/02 09:07:49;;;;;;;8.37;7.47;;;7.10;99.90;;;;;;4950509;28;20285;-48
2022/04/02 09:10:29;;;;;;;9.47;7.37;;;7.10;99.90;;;;;;4951553;29;20186;-55
2022/04/02 09:13:15;;;;;;;10.23;7.57;;;7.10;99.90;;;;;;4985193;28;20197;-53
2022/04/02 09:15:50;;;;;;;7.67;6.70;;;7.20;99.90;;;;;;4989584;28;20211;-48
2022/04/02 09:18:36;;;;;;;15.70;7.97;;;7.20;99.90;;;;;;4979079;28;20217;-53
2022/04/02 09:21:17;;;;;;;11.83;7.67;;;7.20;99.90;;;;;;4969427;28;20216;-54
2022/04/02 09:23:46;;;;;;;13.90;8.37;;;7.20;99.90;;;;;;4970414;28;20655;-50
2022/04/02 09:26:36;;;;;;;16.20;8.27;;;7.20;99.90;;;;;;4954350;28;20173;-57
2022/04/02 09:29:23;;;;;;;9.90;7.40;;;7.10;99.90;;;;;;4954320;28;20229;-56
2022/04/02 09:31:57;;;;;;;9.03;7.40;;;6.90;99.90;;;;;;4970288;28;20189;-53
2022/04/02 09:35:00;;;;;;;9.37;7.43;;;6.90;99.90;;;;;;4970035;28;20201;-50
2022/04/02 09:37:53;;;;;;;8.97;6.87;;;6.90;99.90;;;;;;4958265;28;20194;-55
2022/04/02 09:40:22;;;;;;;9.20;6.90;;;7.00;99.90;;;;;;4951940;28;20217;-57
2022/04/02 09:42:55;;;;;;;9.20;7.83;;;7.30;99.90;;;;;;4946645;29;20218;-52
2022/04/02 09:45:22;;;;;;;8.83;7.83;;;7.40;99.90;;;;;;5037206;28;20198;-52
2022/04/02 09:48:09;;;;;;;8.20;7.40;;;7.40;99.90;;;;;;5049190;28;20167;-51
2022/04/02 09:50:36;;;;;;;11.63;7.07;;;7.70;99.90;;;;;;5048555;28;20179;-50
2022/04/02 09:53:11;;;;;;;8.00;7.20;;;7.70;99.90;;;;;;5031002;28;20218;-48
2022/04/02 09:55:43;;;;;;;9.30;7.23;;;7.60;99.90;;;;;;5031373;28;20246;-54
2022/04/02 09:58:43;;;;;;;9.17;7.73;;;7.80;99.90;;;;;;5029731;28;20176;-51
2022/04/02 10:01:17;;;;;;;7.77;6.73;;;7.60;99.90;;;;;;5030994;28;20196;-49
2022/04/02 10:03:53;;;;;;;8.77;6.83;;;8.10;99.90;;;;;;5042035;28;20221;-49
2022/04/02 10:06:25;;;;;;;7.90;7.10;;;8.20;99.90;;;;;;5051074;28;20198;-50
2022/04/02 10:09:11;;;;;;;9.13;7.00;;;8.40;99.90;;;;;;5051343;28;20255;-50
2022/04/02 10:11:59;;;;;;;8.17;7.00;;;9.50;99.90;;;;;;5050546;28;20171;-50
2022/04/02 10:14:28;;;;;;;9.33;7.40;;;9.40;99.90;;;;;;5050848;28;20687;-53
2022/04/02 10:16:56;;;;;;;8.40;7.60;;;9.80;99.90;;;;;;5050758;28;20179;-53
2022/04/02 10:19:39;;;;;;;8.20;7.37;;;9.80;99.90;;;;;;5049123;28;20211;-53
2022/04/02 10:22:07;;;;;;;7.30;6.57;;;9.80;99.90;;;;;;5052798;28;20207;-55
2022/04/02 10:24:40;;;;;;;7.93;6.80;;;9.80;99.90;;;;;;5053998;28;20281;-55
2022/04/02 10:27:11;;;;;;;8.17;7.20;;;9.90;99.90;;;;;;5046186;28;20174;-54
2022/04/02 10:30:01;;;;;;;8.83;7.47;;;9.80;99.90;;;;;;5043128;28;20163;-51
2022/04/02 10:32:45;;;;;;;9.40;6.37;;;9.90;99.90;;;;;;5048951;28;20180;-56
2022/04/02 10:35:13;;;;;;;7.97;6.80;;;9.90;99.90;;;;;;5046607;28;20190;-54
2022/04/02 10:37:40;;;;;;;8.40;6.80;;;9.90;99.90;;;;;;5034156;28;20522;-56
2022/04/02 10:40:11;;;;;;;8.00;6.57;;;9.80;99.90;;;;;;5040651;28;20186;-55
2022/04/02 10:42:42;;;;;;;9.00;8.10;;;9.80;99.90;;;;;;5032420;28;20222;-52
2022/04/02 10:45:10;;;;;;;8.57;7.13;;;9.70;99.90;;;;;;5034681;28;20212;-56
2022/04/02 10:47:46;;;;;;;8.50;6.87;;;9.60;99.90;;;;;;5032803;28;20580;-55
2022/04/02 10:50:12;;;;;;;12.53;10.47;;;9.50;99.90;;;;;;5032355;28;20198;-53
2022/04/02 10:52:41;;;;;;;6.43;5.80;;;9.40;99.90;;;;;;5042966;28;20190;-55
2022/04/02 10:55:07;;;;;;;6.90;5.50;;;9.10;99.90;;;;;;5057102;28;20225;-53
2022/04/02 10:57:33;;;;;;;7.27;5.67;;;9.00;99.90;;;;;;5064131;28;20163;-51
2022/04/02 11:00:09;;;;;;;5.73;5.13;;;8.90;99.90;;;;;;5052958;28;20171;-50
2022/04/02 11:02:41;;;;;;;5.53;5.03;;;8.70;99.90;;;;;;5033556;28;20357;-52
2022/04/02 11:05:09;;;;;;;7.23;5.30;;;8.50;99.90;;;;;;5033726;28;20187;-52
2022/04/02 11:07:40;;;;;;;6.10;5.50;;;8.50;99.90;;;;;;5033509;28;20172;-54
2022/04/02 11:10:08;;;;;;;6.60;5.60;;;8.40;99.90;;;;;;5034314;28;20172;-54
2022/04/02 11:12:39;;;;;;;6.20;5.60;;;8.30;99.90;;;;;;5033058;28;20714;-52
2022/04/02 11:15:19;;;;;;;6.20;5.60;;;8.30;99.90;;;;;;5033822;28;20665;-54
2022/04/02 11:17:49;;;;;;;6.93;5.37;;;8.50;99.90;;;;;;5033887;28;20171;-51
2022/04/02 11:20:15;;;;;;;5.80;5.20;;;8.70;99.90;;;;;;5033542;28;20290;-57
2022/04/02 11:22:46;;;;;;;7.63;5.97;;;8.80;99.90;;;;;;5033353;28;20266;-53
2022/04/02 11:25:16;;;;;;;6.27;5.67;;;8.90;99.90;;;;;;5033735;28;20188;-54
2022/04/02 11:27:48;;;;;;;6.77;5.67;;;8.70;99.90;;;;;;5016136;28;20172;-51
2022/04/02 11:30:16;;;;;;;6.30;5.70;;;8.60;99.90;;;;;;5031928;28;20194;-52
2022/04/02 11:32:44;;;;;;;5.93;5.33;;;8.70;99.90;;;;;;5032819;28;20580;-53
2022/04/02 11:35:23;;;;;;;5.73;5.13;;;8.90;99.90;;;;;;5033062;28;20656;-53
2022/04/02 11:38:03;;;;;;;5.83;5.23;;;9.00;99.90;;;;;;5033174;28;20179;-52
2022/04/02 11:40:30;;;;;;;6.13;5.17;;;9.00;99.90;;;;;;5033531;28;20210;-52
2022/04/02 11:43:02;;;;;;;7.33;5.53;;;9.10;99.90;;;;;;5032954;28;20176;-52
2022/04/02 11:45:32;;;;;;;6.83;5.40;;;9.30;99.90;;;;;;5033408;28;20212;-50
2022/04/02 11:48:09;;;;;;;5.80;5.27;;;9.40;99.90;;;;;;5033323;28;20164;-51
2022/04/02 11:50:43;;;;;;;6.67;5.50;;;9.60;99.90;;;;;;5033106;28;20383;-54
2022/04/02 11:53:10;;;;;;;5.40;4.90;;;9.60;99.90;;;;;;5032795;28;20176;-54
2022/04/02 11:55:37;;;;;;;5.73;5.13;;;9.60;99.90;;;;;;5032768;28;20294;-51
2022/04/02 11:58:08;;;;;;;5.43;4.93;;;9.60;99.90;;;;;;5033284;28;20175;-55
2022/04/02 12:00:40;;;;;;;6.20;5.53;;;9.50;99.90;;;;;;5032829;28;20192;-55
2022/04/02 12:03:21;;;;;;;6.33;5.73;;;9.60;99.90;;;;;;5033006;28;20226;-53
2022/04/02 12:05:48;;;;;;;5.63;5.13;;;9.60;99.90;;;;;;5032776;28;20187;-56
2022/04/02 12:08:35;;;;;;;6.87;5.07;;;9.60;99.90;;;;;;5032984;28;20653;-55
2022/04/02 12:11:03;;;;;;;5.30;4.80;;;9.60;99.60;;;;;;5031254;28;20183;-51
2022/04/02 12:13:29;;;;;;;5.10;4.70;;;9.70;99.80;;;;;;5032703;28;20168;-54
2022/04/02 12:16:09;;;;;;;5.13;4.70;;;9.70;99.70;;;;;;5032868;28;20202;-54
2022/04/02 12:18:55;;;;;;;6.30;5.10;;;9.90;99.90;;;;;;5032509;28;20175;-52
2022/04/02 12:21:35;;;;;;;4.87;4.47;;;10.00;99.10;;;;;;5032783;28;20235;-52
2022/04/02 12:24:02;;;;;;;5.50;5.00;;;10.30;99.30;;;;;;5031051;28;20171;-55
2022/04/02 12:26:29;;;;;;;5.77;5.17;;;10.30;99.10;;;;;;5032750;28;20175;-53
2022/04/02 12:28:59;;;;;;;5.90;5.30;;;10.30;99.30;;;;;;5031342;28;20553;-54
2022/04/02 12:31:30;;;;;;;6.10;5.50;;;10.30;99.10;;;;;;5032849;28;20175;-54
2022/04/02 12:33:58;;;;;;;6.00;4.63;;;10.30;98.70;;;;;;5032187;28;20180;-52
2022/04/02 12:36:35;;;;;;;4.90;4.50;;;10.30;98.40;;;;;;5032585;28;20171;-53
2022/04/02 12:39:06;;;;;;;5.23;4.73;;;10.30;97.20;;;;;;5032546;28;20510;-51
2022/04/02 12:41:33;;;;;;;4.83;4.43;;;10.20;97.10;;;;;;5031265;28;20202;-55
2022/04/02 12:44:05;;;;;;;5.83;4.67;;;10.10;97.90;;;;;;5032672;28;20262;-53
2022/04/02 12:46:31;;;;;;;5.70;4.97;;;10.00;97.60;;;;;;5032894;28;20171;-50
2022/04/02 12:48:58;;;;;;;5.70;5.00;;;9.70;98.40;;;;;;5032837;28;20182;-55
2022/04/02 12:51:25;;;;;;;5.23;4.73;;;9.40;99.30;;;;;;5031830;28;20640;-53
2022/04/02 12:53:58;;;;;;;6.67;4.50;;;9.50;99.10;;;;;;5031692;28;20179;-56
2022/04/02 12:56:27;;;;;;;5.53;4.93;;;9.30;98.90;;;;;;5032351;28;20226;-49
2022/04/02 12:58:55;;;;;;;5.50;4.90;;;9.40;99.00;;;;;;5031920;28;20171;-55
2022/04/02 13:01:21;;;;;;;5.70;5.20;;;9.20;99.70;;;;;;5032227;28;20203;-54
2022/04/02 13:04:00;;;;;;;5.80;5.30;;;8.70;99.90;;;;;;5040330;28;20517;-52
2022/04/02 13:06:47;;;;;;;5.03;4.30;;;8.90;99.90;;;;;;5052002;28;20205;-57
2022/04/02 13:09:18;;;;;;;5.50;4.90;;;8.50;99.70;;;;;;5050525;28;20197;-58
2022/04/02 13:11:55;;;;;;;5.43;4.83;;;8.20;99.80;;;;;;5090782;22;20284;-50